createdAt,value
2023-02-19T00:01:34.901Z,9.82
2023-02-19T00:03:07.945Z,8.32
2023-02-19T00:04:42.456Z,8.95
2023-02-19T00:06:14.485Z,7.95
2023-02-19T00:07:47.459Z,8.93
2023-02-19T00:09:21.473Z,8.68
2023-02-19T00:10:53.490Z,7.75
2023-02-19T00:12:26.574Z,7.80
2023-02-19T00:14:01.361Z,7.32
2023-02-19T00:15:34.776Z,6.70
2023-02-19T00:18:40.733Z,8.15
2023-02-19T00:20:15.220Z,8.02
2023-02-19T00:21:48.656Z,7.85
2023-02-19T00:23:21.622Z,7.28
2023-02-19T00:24:54.563Z,8.80
2023-02-19T00:26:27.939Z,6.50
2023-02-19T00:29:33.732Z,7.25
2023-02-19T00:31:06.907Z,7.35
2023-02-19T00:32:39.897Z,7.28
2023-02-19T00:34:14.296Z,7.63
2023-02-19T00:35:48.567Z,7.50
2023-02-19T00:37:21.544Z,7.05
2023-02-19T00:38:54.485Z,7.00
2023-02-19T00:40:27.420Z,7.70
2023-02-19T00:42:00.892Z,9.73
2023-02-19T00:43:33.944Z,6.88
2023-02-19T00:45:07.481Z,6.78
2023-02-19T00:46:42.494Z,7.95
2023-02-19T00:48:15.446Z,7.53
2023-02-19T00:49:48.442Z,8.45
2023-02-19T00:51:23.736Z,7.55
2023-02-19T00:52:56.754Z,7.30
2023-02-19T00:54:31.559Z,8.10
2023-02-19T00:56:05.200Z,8.60
2023-02-19T00:57:38.165Z,6.97
2023-02-19T00:59:11.502Z,7.60
2023-02-19T01:02:16.338Z,7.50
2023-02-19T01:03:49.749Z,8.18
2023-02-19T01:06:57.007Z,7.07
2023-02-19T01:08:34.453Z,8.85
2023-02-19T01:10:10.731Z,9.10
2023-02-19T01:11:54.030Z,7.13
2023-02-19T01:13:31.007Z,8.90
2023-02-19T01:15:04.549Z,7.35
2023-02-19T01:16:36.549Z,9.32
2023-02-19T01:18:09.593Z,8.05
2023-02-19T01:19:49.869Z,8.00
2023-02-19T01:21:27.920Z,8.38
2023-02-19T01:23:02.592Z,8.15
2023-02-19T01:24:35.573Z,8.55
2023-02-19T01:26:09.573Z,9.05
2023-02-19T01:27:42.565Z,8.80
2023-02-19T01:29:26.562Z,9.10
2023-02-19T01:31:02.624Z,8.70
2023-02-19T01:32:35.483Z,8.77
2023-02-19T01:34:10.740Z,9.27
2023-02-19T01:35:42.695Z,8.48
2023-02-19T01:37:15.667Z,9.23
2023-02-19T01:38:50.531Z,9.57
2023-02-19T01:40:23.745Z,8.52
2023-02-19T01:41:58.526Z,9.73
2023-02-19T01:44:34.303Z,9.52
2023-02-19T01:46:07.250Z,8.20
2023-02-19T01:47:39.297Z,9.80
2023-02-19T01:49:16.816Z,9.60
2023-02-19T01:50:54.070Z,9.40
2023-02-19T01:52:32.621Z,8.82
2023-02-19T01:54:17.750Z,8.95
2023-02-19T01:55:55.376Z,9.07
2023-02-19T01:57:33.009Z,8.93
2023-02-19T02:06:14.300Z,7.72
2023-02-19T02:16:46.179Z,8.68
2023-02-19T02:18:29.255Z,8.20
2023-02-19T02:20:33.399Z,8.30
2023-02-19T02:22:12.620Z,7.80
2023-02-19T02:24:01.954Z,9.00
2023-02-19T02:25:50.860Z,7.80
2023-02-19T02:27:40.407Z,7.88
2023-02-19T02:29:38.119Z,7.63
2023-02-19T02:31:16.131Z,7.30
2023-02-19T02:32:57.213Z,7.15
2023-02-19T02:34:35.815Z,6.97
2023-02-19T02:36:46.757Z,6.45
2023-02-19T02:39:19.133Z,6.78
2023-02-19T02:46:41.006Z,6.07
2023-02-19T02:51:40.697Z,7.93
2023-02-19T02:54:19.369Z,8.23
2023-02-19T02:56:42.875Z,5.90
2023-02-19T03:01:39.738Z,6.55
2023-02-19T03:05:54.360Z,7.03
2023-02-19T03:07:52.486Z,6.38
2023-02-19T03:09:49.747Z,6.28
2023-02-19T03:12:12.500Z,6.15
2023-02-19T03:14:37.780Z,5.57
2023-02-19T03:16:59.921Z,6.55
2023-02-19T03:21:33.856Z,5.82
2023-02-19T03:24:01.922Z,5.65
2023-02-19T03:28:51.088Z,6.65
2023-02-19T03:36:12.225Z,5.78
2023-02-19T03:43:41.854Z,6.60
2023-02-19T03:46:00.923Z,7.93
2023-02-19T03:56:02.927Z,4.68
2023-02-19T03:58:34.166Z,4.82
2023-02-19T04:00:52.825Z,5.43
2023-02-19T04:03:07.024Z,8.77
2023-02-19T04:07:19.108Z,5.72
2023-02-19T04:12:23.434Z,5.68
2023-02-19T04:18:34.926Z,6.60
2023-02-19T04:21:05.520Z,6.40
2023-02-19T04:22:50.928Z,6.18
2023-02-19T04:24:57.549Z,6.40
2023-02-19T04:26:47.623Z,6.65
2023-02-19T04:28:53.961Z,6.68
2023-02-19T04:33:54.357Z,6.28
2023-02-19T04:35:53.561Z,6.53
2023-02-19T04:38:15.077Z,6.53
2023-02-19T04:40:33.999Z,7.32
2023-02-19T04:54:51.020Z,5.93
2023-02-19T04:56:42.884Z,7.30
2023-02-19T04:58:21.485Z,6.20
2023-02-19T04:59:59.507Z,6.47
2023-02-19T05:01:32.730Z,8.02
2023-02-19T05:03:08.796Z,6.78
2023-02-19T05:04:42.452Z,7.65
2023-02-19T05:06:15.898Z,6.72
2023-02-19T05:09:22.164Z,6.45
2023-02-19T05:11:00.171Z,6.88
2023-02-19T05:12:33.410Z,6.22
2023-02-19T05:14:06.412Z,6.03
2023-02-19T05:15:39.667Z,5.97
2023-02-19T05:17:12.814Z,6.43
2023-02-19T05:18:47.234Z,5.50
2023-02-19T05:20:22.325Z,5.10
2023-02-19T05:21:55.454Z,5.30
2023-02-19T05:23:28.716Z,7.72
2023-02-19T05:25:02.142Z,6.10
2023-02-19T05:28:18.686Z,5.55
2023-02-19T05:29:52.112Z,6.68
2023-02-19T05:31:24.720Z,5.03
2023-02-19T05:32:57.772Z,6.50
2023-02-19T05:34:30.839Z,6.35
2023-02-19T05:36:07.418Z,5.63
2023-02-19T05:37:40.501Z,4.57
2023-02-19T05:39:14.075Z,5.10
2023-02-19T05:40:47.700Z,5.78
2023-02-19T05:42:22.362Z,5.40
2023-02-19T05:43:58.172Z,5.25
2023-02-19T05:45:30.202Z,4.13
2023-02-19T05:47:03.185Z,4.68
2023-02-19T05:48:47.517Z,4.88
2023-02-19T05:50:19.491Z,4.63
2023-02-19T05:51:52.506Z,4.78
2023-02-19T05:53:25.567Z,5.07
2023-02-19T05:54:58.702Z,5.25
2023-02-19T05:56:35.084Z,5.82
2023-02-19T05:58:09.486Z,4.22
2023-02-19T05:59:42.484Z,5.07
2023-02-19T06:01:20.490Z,5.32
2023-02-19T06:02:53.582Z,4.05
2023-02-19T06:04:26.811Z,5.47
2023-02-19T06:05:59.950Z,4.63
2023-02-19T06:07:33.402Z,5.30
2023-02-19T06:09:07.156Z,4.38
2023-02-19T06:10:41.408Z,4.55
2023-02-19T06:12:15.359Z,4.72
2023-02-19T06:13:50.510Z,4.90
2023-02-19T06:15:23.596Z,6.13
2023-02-19T06:16:56.575Z,6.75
2023-02-19T06:18:28.766Z,5.47
2023-02-19T06:20:02.090Z,6.18
2023-02-19T06:23:08.493Z,5.57
2023-02-19T06:24:41.723Z,4.15
2023-02-19T06:26:17.714Z,5.65
2023-02-19T06:27:50.790Z,4.22
2023-02-19T06:29:25.205Z,5.18
2023-02-19T06:31:00.041Z,5.35
2023-02-19T06:32:33.600Z,4.97
2023-02-19T06:34:07.263Z,6.22
2023-02-19T06:35:39.281Z,5.65
2023-02-19T06:37:14.917Z,6.85
2023-02-19T06:38:48.164Z,5.93
2023-02-19T06:40:21.204Z,6.75
2023-02-19T06:41:56.448Z,4.78
2023-02-19T06:43:29.820Z,5.47
2023-02-19T06:46:37.239Z,5.32
2023-02-19T06:49:43.218Z,5.20
2023-02-19T06:51:19.427Z,4.97
2023-02-19T06:52:52.415Z,4.80
2023-02-19T06:54:26.447Z,6.10
2023-02-19T06:56:00.840Z,5.22
2023-02-19T06:57:33.861Z,4.43
2023-02-19T06:59:08.614Z,5.88
2023-02-19T07:00:43.147Z,5.18
2023-02-19T07:02:16.466Z,5.95
2023-02-19T07:03:49.540Z,4.88
2023-02-19T07:05:22.564Z,3.63
2023-02-19T07:06:55.759Z,4.95
2023-02-19T07:08:29.725Z,4.22
2023-02-19T07:10:02.996Z,4.43
2023-02-19T07:11:39.036Z,4.40
2023-02-19T07:13:12.312Z,3.83
2023-02-19T07:14:45.404Z,5.13
2023-02-19T07:16:19.870Z,3.85
2023-02-19T07:17:52.969Z,5.20
2023-02-19T07:19:26.253Z,4.70
2023-02-19T07:21:04.069Z,4.20
2023-02-19T07:22:37.256Z,3.85
2023-02-19T07:24:11.120Z,4.75
2023-02-19T07:25:43.512Z,4.72
2023-02-19T07:27:16.594Z,3.37
2023-02-19T07:28:51.518Z,3.85
2023-02-19T07:30:24.823Z,4.32
2023-02-19T07:33:32.604Z,6.55
2023-02-19T07:35:06.175Z,4.75
2023-02-19T07:36:39.412Z,5.10
2023-02-19T07:38:17.326Z,4.20
2023-02-19T07:39:50.392Z,6.07
2023-02-19T07:41:27.459Z,4.38
2023-02-19T07:43:01.293Z,4.32
2023-02-19T07:44:34.342Z,5.90
2023-02-19T07:46:08.102Z,5.78
2023-02-19T07:47:42.459Z,4.03
2023-02-19T07:49:15.515Z,4.78
2023-02-19T07:50:52.855Z,4.32
2023-02-19T07:52:25.983Z,4.75
2023-02-19T07:53:58.976Z,3.92
2023-02-19T07:55:31.942Z,4.68
2023-02-19T07:57:05.071Z,3.70
2023-02-19T07:58:38.069Z,3.72
2023-02-19T08:00:12.318Z,4.05
2023-02-19T08:02:02.774Z,4.40
2023-02-19T08:03:37.639Z,4.03
2023-02-19T08:05:10.553Z,4.85
2023-02-19T08:06:44.005Z,5.43
2023-02-19T08:10:09.854Z,4.32
2023-02-19T08:12:00.430Z,4.20
2023-02-19T08:13:33.239Z,4.15
2023-02-19T08:15:06.703Z,5.70
2023-02-19T08:16:43.226Z,3.22
2023-02-19T08:18:16.488Z,5.03
2023-02-19T08:19:50.795Z,4.53
2023-02-19T08:21:24.476Z,5.70
2023-02-19T08:22:57.679Z,3.28
2023-02-19T08:24:31.159Z,3.90
2023-02-19T08:26:04.494Z,4.20
2023-02-19T08:29:10.278Z,3.08
2023-02-19T08:30:45.697Z,3.85
2023-02-19T08:32:19.718Z,3.08
2023-02-19T08:33:53.114Z,2.83
2023-02-19T08:37:02.082Z,2.70
2023-02-19T08:38:36.703Z,3.55
2023-02-19T08:40:11.092Z,3.95
2023-02-19T08:41:44.572Z,4.05
2023-02-19T08:43:19.451Z,2.88
2023-02-19T08:44:53.231Z,3.95
2023-02-19T08:46:26.678Z,3.05
2023-02-19T08:48:00.412Z,2.45
2023-02-19T08:49:33.789Z,2.97
2023-02-19T08:52:43.121Z,2.25
2023-02-19T08:55:50.332Z,4.03
2023-02-19T08:57:23.809Z,2.85
2023-02-19T08:58:57.063Z,2.80
2023-02-19T09:00:30.447Z,1.92
2023-02-19T09:03:36.887Z,2.00
2023-02-19T09:05:11.626Z,2.05
2023-02-19T09:06:47.761Z,3.17
2023-02-19T09:08:21.330Z,2.53
2023-02-19T09:09:54.943Z,2.88
2023-02-19T09:11:28.262Z,2.05
2023-02-19T09:16:09.607Z,2.13
2023-02-19T09:17:42.992Z,2.55
2023-02-19T09:19:16.294Z,2.08
2023-02-19T09:20:49.682Z,3.35
2023-02-19T09:23:57.928Z,2.47
2023-02-19T09:25:31.925Z,2.83
2023-02-19T09:27:05.140Z,4.70
2023-02-19T09:28:41.719Z,4.20
2023-02-19T09:30:15.161Z,3.92
2023-02-19T09:33:21.975Z,3.10
2023-02-19T09:34:55.523Z,4.82
2023-02-19T09:36:28.866Z,3.47
2023-02-19T09:39:38.133Z,5.43
2023-02-19T09:41:18.210Z,7.03
2023-02-19T09:42:54.636Z,4.38
2023-02-19T09:44:31.031Z,5.45
2023-02-19T09:46:09.302Z,5.35
2023-02-19T09:47:45.650Z,3.75
2023-02-19T09:49:21.787Z,6.18
2023-02-19T09:50:56.398Z,4.20
2023-02-19T09:52:35.509Z,4.47
2023-02-19T09:54:19.348Z,5.25
2023-02-19T09:57:29.592Z,5.95
2023-02-19T09:59:02.998Z,4.13
2023-02-19T10:00:38.783Z,5.72
2023-02-19T10:02:16.446Z,6.22
2023-02-19T10:03:50.560Z,4.80
2023-02-19T10:05:26.099Z,5.47
2023-02-19T10:07:03.759Z,4.60
2023-02-19T10:08:37.810Z,5.40
2023-02-19T10:10:28.018Z,5.53
2023-02-19T10:12:01.745Z,5.13
2023-02-19T10:13:42.803Z,4.45
2023-02-19T10:15:25.436Z,5.97
2023-02-19T10:17:00.763Z,5.25
2023-02-19T10:18:42.329Z,5.10
2023-02-19T10:20:22.462Z,5.28
2023-02-19T10:21:56.717Z,5.88
2023-02-19T10:23:29.871Z,5.63
2023-02-19T10:25:03.454Z,5.90
2023-02-19T10:26:37.891Z,6.88
2023-02-19T10:28:14.388Z,5.30
2023-02-19T10:29:51.136Z,5.15
2023-02-19T10:31:26.812Z,4.10
2023-02-19T10:33:03.205Z,4.60
2023-02-19T10:34:36.238Z,5.93
2023-02-19T10:36:23.417Z,6.28
2023-02-19T10:37:56.930Z,3.35
2023-02-19T10:39:42.231Z,3.90
2023-02-19T10:41:17.916Z,5.55
2023-02-19T10:42:55.240Z,5.07
2023-02-19T10:44:31.470Z,4.78
2023-02-19T10:46:08.178Z,5.07
2023-02-19T10:47:47.655Z,4.28
2023-02-19T10:49:26.517Z,3.70
2023-02-19T10:51:08.815Z,5.05
2023-02-19T10:52:42.404Z,4.07
2023-02-19T10:54:18.958Z,6.35
2023-02-19T10:56:08.407Z,7.18
2023-02-19T10:57:41.620Z,6.72
2023-02-19T10:59:26.533Z,3.47
2023-02-19T11:01:20.663Z,5.57
2023-02-19T11:03:15.333Z,4.25
2023-02-19T11:05:05.966Z,6.38
2023-02-19T11:06:39.349Z,5.18
2023-02-19T11:09:55.911Z,7.45
2023-02-19T11:11:34.607Z,4.50
2023-02-19T11:13:15.200Z,5.40
2023-02-19T11:14:49.706Z,4.95
2023-02-19T11:16:22.905Z,4.13
2023-02-19T11:17:58.058Z,3.90
2023-02-19T11:19:37.861Z,5.40
2023-02-19T11:21:33.105Z,5.68
2023-02-19T11:23:15.493Z,4.70
2023-02-19T11:24:57.295Z,6.10
2023-02-19T11:26:41.068Z,6.28
2023-02-19T11:28:44.706Z,4.90
2023-02-19T11:31:06.589Z,6.95
2023-02-19T11:32:39.754Z,5.43
2023-02-19T11:34:29.857Z,6.90
2023-02-19T11:36:22.550Z,5.78
2023-02-19T11:37:57.759Z,6.03
2023-02-19T11:39:33.808Z,6.68
2023-02-19T11:41:15.808Z,7.72
2023-02-19T11:42:53.484Z,6.60
2023-02-19T11:44:39.818Z,5.93
2023-02-19T11:46:22.367Z,9.38
2023-02-19T11:48:19.192Z,8.00
2023-02-19T11:50:01.345Z,6.68
2023-02-19T11:51:58.937Z,8.10
2023-02-19T11:53:34.732Z,6.32
2023-02-19T11:55:18.260Z,6.78
2023-02-19T11:57:00.190Z,6.28
2023-02-19T11:59:06.261Z,8.68
2023-02-19T12:00:49.784Z,9.52
2023-02-19T12:03:02.118Z,7.85
2023-02-19T12:05:19.077Z,7.15
2023-02-19T12:07:03.395Z,7.65
2023-02-19T12:08:51.681Z,8.55
2023-02-19T12:10:29.853Z,7.30
2023-02-19T12:12:18.524Z,6.32
2023-02-19T12:14:10.802Z,8.20
2023-02-19T12:17:48.196Z,7.05
2023-02-19T12:19:44.690Z,5.60
2023-02-19T12:21:35.362Z,5.82
2023-02-19T12:23:37.806Z,7.93
2023-02-19T12:25:42.390Z,7.22
2023-02-19T12:27:27.958Z,6.72
2023-02-19T12:29:19.168Z,7.15
2023-02-19T12:31:19.008Z,6.97
2023-02-19T12:33:13.712Z,8.85
2023-02-19T12:35:13.940Z,8.88
2023-02-19T12:36:59.581Z,7.22
2023-02-19T12:38:37.961Z,7.75
2023-02-19T12:40:25.301Z,7.07
2023-02-19T12:42:03.954Z,7.10
2023-02-19T12:43:40.294Z,6.10
2023-02-19T12:45:21.085Z,8.57
2023-02-19T12:46:57.506Z,8.93
2023-02-19T12:48:34.969Z,6.03
2023-02-19T12:50:21.951Z,7.80
2023-02-19T12:52:00.273Z,6.35
2023-02-19T12:53:40.065Z,5.97
2023-02-19T12:55:23.096Z,11.35
2023-02-19T12:57:01.279Z,6.25
2023-02-19T12:58:42.460Z,7.63
2023-02-19T13:00:30.504Z,9.10
2023-02-19T13:02:11.388Z,7.47
2023-02-19T13:03:53.666Z,7.22
2023-02-19T13:05:42.002Z,5.50
2023-02-19T13:07:18.367Z,6.10
2023-02-19T13:09:06.693Z,7.63
2023-02-19T13:10:45.247Z,5.78
2023-02-19T13:12:23.424Z,6.13
2023-02-19T13:14:00.999Z,6.47
2023-02-19T13:15:40.130Z,5.78
2023-02-19T13:17:23.635Z,8.70
2023-02-19T13:18:59.905Z,7.50
2023-02-19T13:20:37.866Z,6.45
2023-02-19T13:22:48.353Z,6.30
2023-02-19T13:24:25.113Z,6.25
2023-02-19T13:26:20.117Z,7.55
2023-02-19T13:28:14.166Z,7.00
2023-02-19T13:30:12.136Z,6.22
2023-02-19T13:32:11.009Z,6.57
2023-02-19T13:33:55.228Z,8.05
2023-02-19T13:35:53.945Z,5.88
2023-02-19T13:37:28.971Z,6.93
2023-02-19T13:39:05.656Z,5.07
2023-02-19T13:40:42.457Z,5.30
2023-02-19T13:42:25.997Z,5.95
2023-02-19T13:44:03.051Z,6.50
2023-02-19T13:45:40.823Z,5.80
2023-02-19T13:47:48.225Z,5.53
2023-02-19T13:49:42.899Z,6.22
2023-02-19T13:51:49.254Z,6.78
2023-02-19T13:53:51.764Z,6.97
2023-02-19T13:55:52.986Z,6.72
2023-02-19T13:57:28.983Z,4.97
2023-02-19T13:59:29.029Z,5.57
2023-02-19T14:01:03.046Z,6.47
2023-02-19T14:02:36.385Z,5.03
2023-02-19T14:06:08.689Z,7.25
2023-02-19T14:08:02.776Z,6.55
2023-02-19T14:09:48.297Z,5.82
2023-02-19T14:11:59.842Z,5.45
2023-02-19T14:14:06.926Z,5.28
2023-02-19T14:15:43.845Z,6.93
2023-02-19T14:17:28.270Z,5.70
2023-02-19T14:19:00.624Z,7.20
2023-02-19T14:20:44.990Z,7.15
2023-02-19T14:23:01.597Z,7.65
2023-02-19T14:24:35.047Z,5.50
2023-02-19T14:29:16.576Z,8.93
2023-02-19T14:30:52.912Z,6.72
2023-02-19T14:32:26.291Z,5.53
2023-02-19T14:35:39.466Z,7.40
2023-02-19T14:37:18.905Z,19.48
2023-02-19T14:38:54.798Z,6.70
2023-02-19T14:40:33.673Z,6.32
2023-02-19T14:42:15.104Z,5.82
2023-02-19T14:43:51.810Z,6.85
2023-02-19T14:45:25.682Z,9.25
2023-02-19T14:47:01.642Z,7.88
2023-02-19T14:48:38.814Z,7.03
2023-02-19T14:50:16.953Z,6.07
2023-02-19T14:51:53.893Z,6.70
2023-02-19T14:53:28.967Z,4.75
2023-02-19T14:55:07.421Z,5.38
2023-02-19T14:56:41.136Z,5.47
2023-02-19T14:58:18.857Z,4.72
2023-02-19T14:59:58.216Z,6.10
2023-02-19T15:01:31.267Z,7.57
2023-02-19T15:03:05.392Z,7.50
2023-02-19T15:04:40.006Z,4.95
2023-02-19T15:06:17.522Z,6.43
2023-02-19T15:07:52.163Z,8.00
2023-02-19T15:09:32.024Z,8.85
2023-02-19T15:11:10.250Z,7.10
2023-02-19T15:12:47.786Z,7.57
2023-02-19T15:14:24.093Z,5.82
2023-02-19T15:15:57.972Z,5.65
2023-02-19T15:17:33.284Z,5.45
2023-02-19T15:19:09.245Z,9.05
2023-02-19T15:20:44.156Z,8.82
2023-02-19T15:22:21.706Z,7.63
2023-02-19T15:23:56.811Z,6.40
2023-02-19T15:25:34.950Z,8.45
2023-02-19T15:27:07.933Z,5.32
2023-02-19T15:28:40.813Z,6.45
2023-02-19T15:30:23.024Z,5.25
2023-02-19T15:31:58.319Z,5.18
2023-02-19T15:33:31.301Z,6.63
2023-02-19T15:35:05.949Z,4.15
2023-02-19T15:36:38.962Z,6.53
2023-02-19T15:38:13.029Z,6.78
2023-02-19T15:39:48.191Z,6.53
2023-02-19T15:41:24.000Z,7.15
2023-02-19T15:42:57.329Z,7.55
2023-02-19T15:46:15.771Z,7.57
2023-02-19T15:47:52.780Z,4.75
2023-02-19T15:49:33.231Z,6.30
2023-02-19T15:51:14.215Z,5.30
2023-02-19T15:52:50.853Z,8.77
2023-02-19T15:54:29.279Z,6.63
2023-02-19T15:56:07.046Z,7.28
2023-02-19T15:57:44.619Z,6.93
2023-02-19T15:59:24.088Z,7.47
2023-02-19T16:00:59.180Z,7.03
2023-02-19T16:02:34.182Z,7.05
2023-02-19T16:04:13.877Z,6.30
2023-02-19T16:05:47.718Z,7.60
2023-02-19T16:07:28.427Z,5.95
2023-02-19T16:09:02.925Z,6.10
2023-02-19T16:10:35.890Z,7.72
2023-02-19T16:12:21.366Z,7.07
2023-02-19T16:14:14.914Z,8.48
2023-02-19T16:15:59.678Z,5.47
2023-02-19T16:17:35.483Z,6.43
2023-02-19T16:19:09.718Z,7.13
2023-02-19T16:20:48.753Z,9.60
2023-02-19T16:22:24.698Z,6.63
2023-02-19T16:24:04.568Z,6.38
2023-02-19T16:25:41.909Z,8.85
2023-02-19T16:27:27.012Z,5.47
2023-02-19T16:29:00.025Z,6.53
2023-02-19T16:30:36.135Z,6.47
2023-02-19T16:32:17.196Z,5.53
2023-02-19T16:33:52.893Z,8.20
2023-02-19T16:35:39.765Z,6.50
2023-02-19T16:37:35.072Z,7.72
2023-02-19T16:39:24.599Z,6.38
2023-02-19T16:41:13.603Z,5.50
2023-02-19T16:43:29.163Z,7.65
2023-02-19T16:45:02.075Z,7.90
2023-02-19T16:46:35.046Z,8.60
2023-02-19T16:48:09.008Z,7.30
2023-02-19T16:49:44.143Z,7.55
2023-02-19T16:51:27.260Z,8.60
2023-02-19T16:53:02.441Z,7.43
2023-02-19T16:54:35.340Z,7.50
2023-02-19T16:56:14.560Z,7.50
2023-02-19T16:57:47.463Z,7.72
2023-02-19T16:59:20.388Z,9.10
2023-02-19T17:00:53.679Z,7.53
2023-02-19T17:02:26.928Z,7.85
2023-02-19T17:04:03.867Z,9.98
2023-02-19T17:05:39.690Z,12.73
2023-02-19T17:07:15.628Z,10.65
2023-02-19T17:08:48.830Z,7.28
2023-02-19T17:10:23.895Z,9.52
2023-02-19T17:11:56.845Z,8.65
2023-02-19T17:13:30.033Z,8.30
2023-02-19T17:15:02.954Z,8.13
2023-02-19T17:16:39.798Z,9.23
2023-02-19T17:18:13.699Z,9.48
2023-02-19T17:19:46.649Z,7.28
2023-02-19T17:21:23.758Z,9.52
2023-02-19T17:22:56.959Z,9.27
2023-02-19T17:24:30.008Z,8.27
2023-02-19T17:26:03.404Z,10.75
2023-02-19T17:29:13.978Z,9.35
2023-02-19T17:30:46.933Z,9.95
2023-02-19T17:32:19.961Z,11.25
2023-02-19T17:33:52.989Z,7.18
2023-02-19T17:35:26.402Z,10.55
2023-02-19T17:38:33.579Z,11.10
2023-02-19T17:40:31.859Z,10.45
2023-02-19T17:42:06.062Z,11.20
2023-02-19T17:43:38.999Z,11.98
2023-02-19T17:45:12.114Z,17.70
2023-02-19T17:46:47.715Z,14.18
2023-02-19T17:48:20.647Z,16.20
2023-02-19T17:49:53.578Z,8.20
2023-02-19T17:51:26.578Z,10.95
2023-02-19T17:53:00.898Z,13.23
2023-02-19T17:54:34.320Z,10.75
2023-02-19T17:56:07.654Z,9.02
2023-02-19T17:59:13.744Z,10.05
2023-02-19T18:02:19.489Z,9.27
2023-02-19T18:03:52.564Z,11.30
2023-02-19T18:05:25.916Z,10.93
2023-02-19T18:08:33.068Z,10.07
2023-02-19T18:10:07.152Z,11.50
2023-02-19T18:11:40.056Z,10.38
2023-02-19T18:13:12.990Z,10.43
2023-02-19T18:14:47.397Z,12.85
2023-02-19T18:16:20.826Z,10.65
2023-02-19T18:19:26.903Z,10.68
2023-02-19T18:20:59.898Z,13.75
2023-02-19T18:22:33.218Z,10.48
2023-02-19T18:24:08.364Z,7.82
2023-02-19T18:25:41.459Z,9.80
2023-02-19T18:27:14.642Z,13.60
2023-02-19T18:28:47.637Z,10.13
2023-02-19T18:30:22.967Z,12.70
2023-02-19T18:31:56.044Z,13.93
2023-02-19T18:33:29.072Z,9.50
2023-02-19T18:35:02.516Z,12.32
2023-02-19T18:38:08.483Z,14.38
2023-02-19T18:39:43.909Z,12.18
2023-02-19T18:41:21.053Z,12.13
2023-02-19T18:42:54.488Z,10.30
2023-02-19T18:44:27.663Z,13.98
2023-02-19T18:46:00.624Z,12.93
2023-02-19T18:47:33.790Z,9.38
2023-02-19T18:49:08.008Z,9.27
2023-02-19T18:50:41.014Z,10.70
2023-02-19T18:52:14.199Z,8.55
2023-02-19T18:53:47.489Z,11.48
2023-02-19T18:56:55.052Z,9.05
2023-02-19T18:58:28.453Z,8.15
2023-02-19T19:01:34.577Z,7.82
2023-02-19T19:03:07.656Z,9.85
2023-02-19T19:04:41.587Z,10.68
2023-02-19T19:06:14.617Z,9.20
2023-02-19T19:07:47.555Z,9.10
2023-02-19T19:09:20.588Z,8.27
2023-02-19T19:10:55.028Z,8.90
2023-02-19T19:12:28.049Z,6.03
2023-02-19T19:14:01.053Z,9.23
2023-02-19T19:15:34.027Z,7.38
2023-02-19T19:17:07.501Z,8.13
2023-02-19T19:20:13.862Z,6.63
2023-02-19T19:21:47.154Z,6.03
2023-02-19T19:23:20.117Z,6.53
2023-02-19T19:24:53.203Z,8.73
2023-02-19T19:26:27.547Z,7.70
2023-02-19T19:28:00.534Z,5.88
2023-02-19T19:29:33.615Z,6.55
2023-02-19T19:31:06.913Z,7.25
2023-02-19T19:34:13.883Z,7.53
2023-02-19T19:35:47.009Z,6.70
2023-02-19T19:37:19.965Z,6.50
2023-02-19T19:38:52.847Z,8.68
2023-02-19T19:40:25.891Z,7.35
2023-02-19T19:41:59.240Z,8.60
2023-02-19T19:43:33.322Z,7.53
2023-02-19T19:45:07.066Z,7.68
2023-02-19T19:46:45.423Z,7.40
2023-02-19T19:48:18.552Z,6.93
2023-02-19T19:49:51.518Z,7.20
2023-02-19T19:51:24.895Z,11.55
2023-02-19T19:54:30.769Z,6.90
2023-02-19T19:56:04.146Z,5.57
2023-02-19T19:59:15.342Z,6.50
2023-02-19T20:00:48.359Z,7.03
2023-02-19T20:02:22.723Z,7.03
2023-02-19T20:03:55.638Z,6.60
2023-02-19T20:05:28.647Z,6.00
2023-02-19T20:07:02.029Z,5.95
2023-02-19T20:10:11.044Z,6.35
2023-02-19T20:11:48.600Z,6.20
2023-02-19T20:13:24.495Z,6.32
2023-02-19T20:14:57.520Z,6.35
2023-02-19T20:16:30.684Z,5.70
2023-02-19T20:18:03.994Z,7.05
2023-02-19T20:21:11.204Z,7.25
2023-02-19T20:22:44.484Z,6.45
2023-02-19T20:24:18.657Z,7.10
2023-02-19T20:25:51.558Z,5.43
2023-02-19T20:27:25.105Z,5.88
2023-02-19T20:28:59.879Z,7.43
2023-02-19T20:30:33.029Z,6.07
2023-02-19T20:32:06.393Z,4.97
2023-02-19T20:35:12.663Z,4.03
2023-02-19T20:36:46.851Z,5.22
2023-02-19T20:38:19.808Z,6.97
2023-02-19T20:39:52.744Z,6.05
2023-02-19T20:41:25.725Z,5.45
2023-02-19T20:43:00.850Z,5.72
2023-02-19T20:44:35.227Z,5.07
2023-02-19T20:46:08.652Z,5.22
2023-02-19T20:49:15.443Z,6.03
2023-02-19T20:50:48.459Z,6.07
2023-02-19T20:52:21.791Z,5.85
2023-02-19T20:55:28.697Z,6.78
2023-02-19T20:57:04.757Z,5.30
2023-02-19T20:58:37.855Z,3.92
2023-02-19T21:00:14.961Z,4.78
2023-02-19T21:01:48.236Z,6.10
2023-02-19T21:03:21.764Z,4.70
2023-02-19T21:04:54.714Z,6.38
2023-02-19T21:06:27.759Z,4.75
2023-02-19T21:08:00.674Z,4.05
2023-02-19T21:09:33.659Z,4.65
2023-02-19T21:11:06.970Z,4.25
2023-02-19T21:14:13.322Z,4.60
2023-02-19T21:15:47.768Z,5.60
2023-02-19T21:17:20.884Z,4.53
2023-02-19T21:18:54.217Z,6.18
2023-02-19T21:20:27.134Z,4.95
2023-02-19T21:22:00.073Z,5.18
2023-02-19T21:23:33.011Z,7.13
2023-02-19T21:25:06.643Z,6.82
2023-02-19T21:26:41.438Z,6.68
2023-02-19T21:28:14.306Z,6.65
2023-02-19T21:29:47.403Z,4.47
2023-02-19T21:31:24.512Z,6.07
2023-02-19T21:32:58.370Z,5.22
2023-02-19T21:34:31.366Z,5.18
2023-02-19T21:36:05.186Z,5.82
2023-02-19T21:37:38.137Z,7.78
2023-02-19T21:39:13.186Z,4.50
2023-02-19T21:40:46.303Z,6.05
2023-02-19T21:42:18.314Z,5.63
2023-02-19T21:43:51.181Z,4.93
2023-02-19T21:45:24.455Z,4.88
2023-02-19T21:46:58.828Z,5.00
2023-02-19T21:48:31.766Z,7.35
2023-02-19T21:50:05.191Z,7.07
2023-02-19T21:54:45.381Z,5.25
2023-02-19T21:56:23.322Z,6.15
2023-02-19T21:57:56.318Z,7.53
2023-02-19T21:59:29.502Z,8.32
2023-02-19T22:01:02.560Z,9.25
2023-02-19T22:02:36.868Z,7.93
2023-02-19T22:04:11.391Z,6.97
2023-02-19T22:05:44.563Z,8.93
2023-02-19T22:07:17.547Z,7.88
2023-02-19T22:08:50.527Z,7.18
2023-02-19T22:10:23.446Z,7.90
2023-02-19T22:11:56.371Z,8.38
2023-02-19T22:13:29.276Z,7.05
2023-02-19T22:15:02.549Z,6.47
2023-02-19T22:16:35.477Z,8.85
2023-02-19T22:18:09.745Z,9.30
2023-02-19T22:19:42.815Z,7.65
2023-02-19T22:21:15.978Z,7.32
2023-02-19T22:22:49.821Z,8.18
2023-02-19T22:24:23.050Z,9.48
2023-02-19T22:25:56.066Z,6.30
2023-02-19T22:27:29.824Z,10.23
2023-02-19T22:29:06.857Z,8.25
2023-02-19T22:30:40.948Z,8.52
2023-02-19T22:32:14.107Z,7.72
2023-02-19T22:33:48.413Z,9.15
2023-02-19T22:35:21.611Z,9.57
2023-02-19T22:36:54.575Z,9.90
2023-02-19T22:38:26.451Z,9.15
2023-02-19T22:39:59.401Z,10.95
2023-02-19T22:41:32.426Z,8.02
2023-02-19T22:43:05.329Z,9.35
2023-02-19T22:44:38.387Z,8.05
2023-02-19T22:46:12.578Z,9.23
2023-02-19T22:47:46.910Z,10.05
2023-02-19T22:49:22.236Z,12.68
2023-02-19T22:50:54.958Z,9.77
2023-02-19T22:52:28.188Z,13.02
2023-02-19T22:54:01.494Z,10.18
2023-02-19T22:55:34.458Z,9.60
2023-02-19T22:57:06.527Z,12.30
2023-02-19T22:58:39.504Z,9.75
2023-02-19T23:00:17.964Z,9.27
2023-02-19T23:01:51.076Z,10.02
2023-02-19T23:03:24.081Z,10.02
2023-02-19T23:04:58.388Z,9.85
2023-02-19T23:06:33.536Z,13.57
2023-02-19T23:08:06.971Z,10.15
2023-02-19T23:11:13.910Z,10.85
2023-02-19T23:12:46.876Z,11.02
2023-02-19T23:14:22.268Z,9.95
2023-02-19T23:15:55.198Z,12.63
2023-02-19T23:17:28.217Z,11.13
2023-02-19T23:19:01.270Z,13.48
2023-02-19T23:20:35.797Z,11.25
2023-02-19T23:22:08.750Z,11.27
2023-02-19T23:23:42.588Z,10.98
2023-02-19T23:25:15.635Z,9.98
2023-02-19T23:26:50.708Z,10.07
2023-02-19T23:28:23.732Z,12.95
2023-02-19T23:29:56.819Z,12.82
2023-02-19T23:31:29.851Z,12.25
2023-02-19T23:33:02.811Z,11.98
2023-02-19T23:34:35.917Z,9.50
2023-02-19T23:36:10.691Z,10.70
2023-02-19T23:37:44.345Z,12.18
2023-02-19T23:39:19.619Z,11.60
2023-02-19T23:40:52.583Z,11.52
2023-02-19T23:42:25.542Z,9.50
2023-02-19T23:43:58.503Z,9.52
2023-02-19T23:45:30.540Z,9.68
2023-02-19T23:47:03.568Z,9.55
2023-02-19T23:48:36.646Z,13.80
2023-02-19T23:50:10.371Z,9.73
2023-02-19T23:51:44.966Z,11.15
2023-02-19T23:53:17.908Z,12.35
2023-02-19T23:54:49.849Z,9.70
2023-02-19T23:56:26.608Z,10.15
2023-02-19T23:57:59.570Z,11.40
2023-02-19T23:59:32.483Z,11.65
